createdAt,value
2019-01-15T00:00:01.182Z,23.90
2019-01-15T00:01:01.170Z,24.04
2019-01-15T00:02:01.163Z,24.08
2019-01-15T00:03:01.155Z,23.97
2019-01-15T00:04:01.135Z,23.98
2019-01-15T00:05:01.123Z,24.05
2019-01-15T00:06:01.116Z,24.13
2019-01-15T00:07:01.101Z,24.10
2019-01-15T00:08:01.103Z,24.10
2019-01-15T00:09:01.080Z,24.01
2019-01-15T00:10:01.068Z,24.05
2019-01-15T00:11:01.056Z,24.07
2019-01-15T00:12:07.635Z,24.10
2019-01-15T00:13:02.043Z,24.12
2019-01-15T00:14:01.032Z,24.08
2019-01-15T00:15:01.011Z,24.13
2019-01-15T00:16:00.999Z,24.08
2019-01-15T00:17:00.989Z,24.07
2019-01-15T00:18:00.978Z,24.00
2019-01-15T00:19:00.975Z,23.92
2019-01-15T00:20:00.956Z,24.07
2019-01-15T00:21:00.944Z,24.12
2019-01-15T00:22:00.988Z,24.07
2019-01-15T00:23:00.922Z,24.08
2019-01-15T00:24:00.922Z,24.08
2019-01-15T00:25:00.903Z,24.07
2019-01-15T00:26:00.889Z,24.12
2019-01-15T00:27:00.876Z,24.13
2019-01-15T00:28:00.868Z,24.05
2019-01-15T00:29:00.863Z,24.08
2019-01-15T00:30:00.847Z,24.10
2019-01-15T00:31:00.832Z,24.12
2019-01-15T00:32:00.824Z,24.05
2019-01-15T00:33:00.811Z,24.05
2019-01-15T00:34:00.810Z,24.10
2019-01-15T00:35:00.790Z,24.05
2019-01-15T00:36:00.777Z,23.92
2019-01-15T00:37:00.768Z,24.07
2019-01-15T00:38:00.755Z,24.07
2019-01-15T00:39:00.753Z,24.10
2019-01-15T00:40:00.732Z,24.07
2019-01-15T00:41:00.722Z,24.08
2019-01-15T00:42:00.709Z,24.10
2019-01-15T00:43:00.698Z,24.07
2019-01-15T00:44:00.695Z,24.04
2019-01-15T00:45:00.681Z,24.08
2019-01-15T00:46:00.667Z,24.10
2019-01-15T00:47:00.653Z,24.08
2019-01-15T00:48:00.641Z,24.02
2019-01-15T00:49:00.641Z,24.02
2019-01-15T00:50:00.619Z,24.00
2019-01-15T00:51:00.622Z,23.92
2019-01-15T00:52:00.598Z,24.08
2019-01-15T00:53:00.587Z,23.94
2019-01-15T00:54:00.588Z,23.90
2019-01-15T00:55:00.614Z,24.07
2019-01-15T00:56:00.555Z,24.02
2019-01-15T00:57:00.547Z,24.00
2019-01-15T00:58:00.531Z,23.95
2019-01-15T00:59:00.523Z,24.02
2019-01-15T01:00:00.565Z,24.00
2019-01-15T01:01:00.497Z,23.97
2019-01-15T01:02:00.487Z,23.92
2019-01-15T01:03:00.479Z,23.92
2019-01-15T01:04:00.464Z,23.95
2019-01-15T01:05:00.464Z,23.95
2019-01-15T01:06:00.448Z,24.00
2019-01-15T01:07:00.431Z,23.98
2019-01-15T01:08:00.462Z,24.07
2019-01-15T01:09:00.408Z,24.00
2019-01-15T01:10:00.407Z,23.98
2019-01-15T01:11:00.388Z,24.07
2019-01-15T01:12:00.377Z,24.10
2019-01-15T01:13:00.364Z,24.10
2019-01-15T01:14:00.353Z,24.00
2019-01-15T01:15:00.353Z,24.13
2019-01-15T01:16:00.331Z,24.16
2019-01-15T01:17:00.320Z,24.14
2019-01-15T01:18:00.307Z,24.27
2019-01-15T01:19:00.296Z,24.19
2019-01-15T01:20:00.297Z,24.27
2019-01-15T01:21:00.276Z,24.17
2019-01-15T01:22:00.264Z,24.26
2019-01-15T01:23:00.251Z,24.13
2019-01-15T01:24:00.240Z,24.01
2019-01-15T01:25:00.239Z,24.12
2019-01-15T01:26:00.217Z,24.02
2019-01-15T01:27:00.207Z,24.05
2019-01-15T01:28:00.198Z,24.04
2019-01-15T01:29:00.185Z,24.07
2019-01-15T01:30:00.270Z,24.04
2019-01-15T01:31:00.164Z,23.94
2019-01-15T01:32:00.152Z,24.01
2019-01-15T01:33:00.141Z,24.01
2019-01-15T01:34:00.130Z,23.97
2019-01-15T01:35:00.200Z,23.97
2019-01-15T01:36:00.109Z,24.02
2019-01-15T01:37:00.100Z,23.97
2019-01-15T01:38:00.084Z,24.05
2019-01-15T01:39:00.076Z,24.05
2019-01-15T01:40:00.199Z,24.04
2019-01-15T01:41:00.051Z,23.92
2019-01-15T01:42:00.045Z,23.97
2019-01-15T01:43:00.031Z,23.97
2019-01-15T01:44:00.019Z,23.94
2019-01-15T01:45:00.020Z,23.97
2019-01-15T01:45:59.995Z,23.98
2019-01-15T01:46:59.985Z,23.98
2019-01-15T01:47:59.977Z,23.97
2019-01-15T01:48:59.964Z,23.98
2019-01-15T01:49:59.952Z,24.07
2019-01-15T01:50:59.958Z,24.12
2019-01-15T01:51:59.930Z,24.12
2019-01-15T01:52:59.919Z,24.19
2019-01-15T01:53:59.909Z,24.17
2019-01-15T01:54:59.895Z,24.34
2019-01-15T01:55:59.893Z,24.27
2019-01-15T01:56:59.875Z,24.29
2019-01-15T01:57:59.863Z,24.23
2019-01-15T01:58:59.852Z,24.27
2019-01-15T01:59:59.841Z,24.19
2019-01-15T02:00:59.838Z,24.29
2019-01-15T02:01:59.820Z,24.23
2019-01-15T02:02:59.809Z,24.32
2019-01-15T02:03:59.796Z,24.31
2019-01-15T02:04:59.786Z,24.19
2019-01-15T02:05:59.784Z,24.17
2019-01-15T02:06:59.763Z,24.14
2019-01-15T02:07:59.751Z,24.26
2019-01-15T02:08:59.741Z,24.14
2019-01-15T02:09:59.730Z,24.24
2019-01-15T02:10:59.728Z,24.39
2019-01-15T02:11:59.708Z,24.31
2019-01-15T02:12:59.697Z,24.39
2019-01-15T02:13:59.708Z,24.41
2019-01-15T02:14:59.677Z,24.34
2019-01-15T02:15:59.672Z,24.49
2019-01-15T02:16:59.655Z,24.54
2019-01-15T02:17:59.641Z,24.54
2019-01-15T02:18:59.631Z,24.57
2019-01-15T02:19:59.623Z,24.56
2019-01-15T02:20:59.618Z,24.59
2019-01-15T02:21:59.600Z,24.59
2019-01-15T02:22:59.586Z,24.57
2019-01-15T02:23:59.576Z,24.56
2019-01-15T02:24:59.565Z,24.60
2019-01-15T02:25:59.565Z,24.50
2019-01-15T02:26:59.543Z,24.44
2019-01-15T02:27:59.531Z,24.42
2019-01-15T02:28:59.520Z,24.44
2019-01-15T02:29:59.509Z,24.44
2019-01-15T02:30:59.511Z,24.34
2019-01-15T02:31:59.487Z,24.37
2019-01-15T02:32:59.477Z,24.37
2019-01-15T02:33:59.465Z,24.29
2019-01-15T02:34:59.457Z,24.31
2019-01-15T02:35:59.457Z,24.26
2019-01-15T02:36:59.432Z,24.22
2019-01-15T02:37:59.420Z,24.16
2019-01-15T02:38:59.417Z,24.17
2019-01-15T02:39:59.401Z,24.14
2019-01-15T02:40:59.389Z,24.13
2019-01-15T02:41:59.383Z,24.05
2019-01-15T02:42:59.366Z,24.19
2019-01-15T02:43:59.358Z,24.07
2019-01-15T02:44:59.354Z,24.05
2019-01-15T02:45:59.342Z,24.10
2019-01-15T02:46:59.329Z,24.01
2019-01-15T02:47:59.311Z,23.98
2019-01-15T02:48:59.308Z,24.08
2019-01-15T02:49:59.290Z,23.94
2019-01-15T02:50:59.281Z,23.95
2019-01-15T02:51:59.277Z,23.94
2019-01-15T02:52:59.253Z,23.90
2019-01-15T02:53:59.245Z,23.86
2019-01-15T02:54:59.238Z,23.82
2019-01-15T02:55:59.222Z,23.86
2019-01-15T02:56:59.218Z,23.85
2019-01-15T02:57:59.199Z,23.79
2019-01-15T02:58:59.189Z,23.77
2019-01-15T02:59:59.176Z,23.77
2019-01-15T03:14:34.020Z,23.65
2019-01-15T03:15:34.012Z,23.53
2019-01-15T03:16:33.999Z,23.62
2019-01-15T03:17:34.017Z,23.58
2019-01-15T03:18:33.976Z,23.45
2019-01-15T03:19:33.970Z,23.53
2019-01-15T03:20:33.962Z,23.42
2019-01-15T03:21:33.943Z,23.43
2019-01-15T03:22:33.942Z,23.45
2019-01-15T03:23:33.921Z,23.39
2019-01-15T03:24:33.911Z,23.45
2019-01-15T03:25:33.906Z,23.43
2019-01-15T03:26:33.887Z,23.40
2019-01-15T03:27:33.886Z,23.40
2019-01-15T03:28:33.865Z,23.38
2019-01-15T03:29:33.853Z,23.38
2019-01-15T03:30:33.844Z,23.42
2019-01-15T03:31:33.837Z,23.31
2019-01-15T03:32:33.833Z,23.40
2019-01-15T03:33:33.810Z,23.27
2019-01-15T03:34:33.799Z,23.27
2019-01-15T03:35:33.787Z,23.27
2019-01-15T03:36:33.777Z,23.27
2019-01-15T03:37:33.774Z,23.23
2019-01-15T03:38:33.753Z,23.26
2019-01-15T03:39:33.742Z,23.27
2019-01-15T03:40:33.736Z,23.23
2019-01-15T03:41:33.720Z,23.23
2019-01-15T03:42:33.727Z,23.12
2019-01-15T03:43:33.698Z,23.20
2019-01-15T03:44:33.687Z,23.15
2019-01-15T03:45:33.717Z,23.11
2019-01-15T03:46:33.664Z,23.24
2019-01-15T03:47:33.664Z,23.31
2019-01-15T03:48:33.643Z,23.15
2019-01-15T03:49:33.633Z,23.20
2019-01-15T03:50:33.621Z,23.19
2019-01-15T03:52:56.166Z,23.14
2019-01-15T03:53:41.514Z,23.07
2019-01-15T03:54:41.501Z,23.14
2019-01-15T03:55:41.492Z,23.11
2019-01-15T03:56:41.479Z,23.08
2019-01-15T03:57:41.477Z,23.07
2019-01-15T03:58:41.456Z,23.11
2019-01-15T03:59:41.443Z,23.09
2019-01-15T04:00:41.432Z,23.08
2019-01-15T04:01:41.425Z,23.09
2019-01-15T04:02:41.421Z,23.08
2019-01-15T04:03:41.398Z,23.05
2019-01-15T04:04:41.392Z,23.07
2019-01-15T04:05:41.382Z,23.05
2019-01-15T04:06:41.367Z,22.96
2019-01-15T04:07:41.368Z,22.97
2019-01-15T04:08:41.340Z,22.96
2019-01-15T04:09:41.332Z,22.96
2019-01-15T04:10:41.321Z,22.97
2019-01-15T04:11:41.308Z,22.99
2019-01-15T04:12:41.295Z,23.05
2019-01-15T04:13:41.295Z,22.99
2019-01-15T04:14:41.275Z,22.94
2019-01-15T04:15:41.266Z,23.01
2019-01-15T04:16:41.256Z,22.93
2019-01-15T04:17:41.269Z,22.97
2019-01-15T04:18:41.238Z,23.02
2019-01-15T04:19:41.223Z,22.90
2019-01-15T04:20:41.206Z,22.89
2019-01-15T04:21:41.198Z,22.93
2019-01-15T04:22:41.202Z,22.87
2019-01-15T04:23:41.184Z,22.87
2019-01-15T04:24:41.160Z,22.93
2019-01-15T04:25:41.151Z,22.83
2019-01-15T04:26:41.141Z,22.86
2019-01-15T04:27:41.127Z,22.90
2019-01-15T04:28:41.115Z,22.83
2019-01-15T04:29:41.112Z,22.84
2019-01-15T04:30:41.095Z,22.84
2019-01-15T04:31:41.083Z,22.92
2019-01-15T04:32:41.070Z,22.94
2019-01-15T04:33:41.060Z,22.80
2019-01-15T04:34:41.057Z,22.87
2019-01-15T04:35:41.037Z,22.86
2019-01-15T04:36:41.025Z,22.80
2019-01-15T04:37:41.014Z,22.83
2019-01-15T04:38:41.004Z,22.80
2019-01-15T04:39:41.000Z,22.80
2019-01-15T04:40:40.981Z,22.83
2019-01-15T04:41:40.969Z,22.80
2019-01-15T04:42:40.957Z,22.86
2019-01-15T04:43:40.946Z,22.82
2019-01-15T04:44:40.945Z,22.75
2019-01-15T04:45:40.925Z,22.69
2019-01-15T04:46:40.917Z,22.78
2019-01-15T04:47:40.913Z,22.78
2019-01-15T04:48:40.891Z,22.84
2019-01-15T04:49:40.887Z,22.75
2019-01-15T04:50:40.867Z,22.74
2019-01-15T04:51:40.857Z,22.74
2019-01-15T04:52:40.847Z,22.78
2019-01-15T04:53:40.832Z,22.80
2019-01-15T04:54:40.832Z,22.74
2019-01-15T04:55:40.810Z,22.56
2019-01-15T04:56:40.798Z,22.46
2019-01-15T04:57:40.791Z,22.44
2019-01-15T04:58:40.778Z,22.44
2019-01-15T04:59:40.777Z,22.44
2019-01-15T05:00:40.781Z,22.54
2019-01-15T05:01:40.748Z,22.39
2019-01-15T05:02:40.730Z,22.39
2019-01-15T05:03:40.798Z,22.57
2019-01-15T05:04:40.712Z,22.65
2019-01-15T05:05:40.705Z,22.56
2019-01-15T05:06:40.686Z,22.46
2019-01-15T05:07:40.674Z,22.46
2019-01-15T05:08:40.665Z,22.35
2019-01-15T05:09:40.654Z,22.39
2019-01-15T05:10:40.651Z,22.37
2019-01-15T05:11:40.630Z,22.41
2019-01-15T05:12:40.618Z,22.38
2019-01-15T05:13:40.608Z,22.38
2019-01-15T05:14:40.595Z,22.34
2019-01-15T05:15:40.593Z,22.32
2019-01-15T05:16:40.573Z,22.41
2019-01-15T05:17:40.562Z,22.50
2019-01-15T05:18:40.553Z,22.39
2019-01-15T05:19:40.540Z,22.49
2019-01-15T05:20:40.538Z,22.59
2019-01-15T05:21:40.614Z,22.59
2019-01-15T05:22:40.505Z,22.68
2019-01-15T05:23:40.493Z,22.67
2019-01-15T05:24:40.484Z,22.64
2019-01-15T05:25:40.483Z,22.68
2019-01-15T05:26:40.463Z,22.54
2019-01-15T05:27:40.449Z,22.59
2019-01-15T05:28:40.443Z,22.54
2019-01-15T05:29:40.429Z,22.54
2019-01-15T05:30:41.981Z,22.72
2019-01-15T05:31:40.407Z,22.67
2019-01-15T05:32:40.395Z,22.60
2019-01-15T05:33:40.384Z,22.68
2019-01-15T05:34:40.372Z,22.57
2019-01-15T05:35:40.368Z,22.59
2019-01-15T05:36:40.347Z,22.54
2019-01-15T05:37:40.341Z,22.52
2019-01-15T05:38:40.328Z,22.56
2019-01-15T05:39:40.315Z,22.53
2019-01-15T05:40:40.311Z,22.50
2019-01-15T05:41:40.294Z,22.49
2019-01-15T05:42:40.284Z,22.47
2019-01-15T05:43:40.274Z,22.39
2019-01-15T05:44:40.259Z,22.47
2019-01-15T05:45:40.257Z,22.49
2019-01-15T05:46:40.237Z,22.56
2019-01-15T05:47:40.225Z,22.57
2019-01-15T05:48:40.215Z,22.59
2019-01-15T05:49:40.206Z,22.53
2019-01-15T05:50:40.204Z,22.50
2019-01-15T05:51:40.181Z,22.39
2019-01-15T05:52:40.171Z,22.41
2019-01-15T05:53:40.157Z,22.44
2019-01-15T05:54:40.146Z,22.50
2019-01-15T05:55:40.138Z,22.34
2019-01-15T05:56:40.136Z,22.35
2019-01-15T05:57:40.114Z,22.44
2019-01-15T05:58:40.103Z,22.34
2019-01-15T05:59:40.089Z,22.32
2019-01-15T06:00:40.079Z,22.37
2019-01-15T06:01:40.075Z,22.34
2019-01-15T06:02:40.058Z,22.31
2019-01-15T06:03:40.044Z,22.39
2019-01-15T06:04:40.034Z,22.32
2019-01-15T06:05:40.024Z,22.49
2019-01-15T06:06:40.021Z,22.46
2019-01-15T06:07:40.004Z,22.37
2019-01-15T06:08:40.003Z,22.34
2019-01-15T06:09:39.983Z,22.35
2019-01-15T06:10:39.967Z,22.34
2019-01-15T06:11:39.965Z,22.32
2019-01-15T06:12:39.943Z,22.38
2019-01-15T06:13:42.723Z,22.32
2019-01-15T06:14:39.924Z,22.34
2019-01-15T06:15:39.910Z,22.35
2019-01-15T06:16:39.906Z,22.32
2019-01-15T06:17:39.890Z,22.25
2019-01-15T06:18:39.878Z,22.25
2019-01-15T06:19:39.868Z,22.25
2019-01-15T06:20:39.853Z,22.32
2019-01-15T06:21:39.857Z,22.23
2019-01-15T06:22:39.833Z,22.34
2019-01-15T06:23:39.819Z,22.19
2019-01-15T06:24:39.809Z,22.29
2019-01-15T06:25:39.801Z,22.31
2019-01-15T06:26:39.786Z,22.23
2019-01-15T06:27:39.834Z,22.16
2019-01-15T06:28:39.763Z,22.12
2019-01-15T06:29:39.752Z,22.23
2019-01-15T06:30:39.742Z,22.20
2019-01-15T06:31:39.731Z,22.12
2019-01-15T06:32:39.729Z,22.20
2019-01-15T06:33:39.707Z,22.12
2019-01-15T06:34:39.696Z,22.23
2019-01-15T06:35:39.687Z,22.16
2019-01-15T06:36:39.673Z,22.09
2019-01-15T06:37:39.673Z,22.07
2019-01-15T06:38:39.653Z,22.10
2019-01-15T06:39:39.640Z,22.07
2019-01-15T06:40:39.629Z,22.06
2019-01-15T06:41:39.620Z,22.04
2019-01-15T06:42:39.656Z,21.97
2019-01-15T06:43:39.595Z,22.10
2019-01-15T06:44:39.589Z,22.16
2019-01-15T06:45:39.573Z,22.13
2019-01-15T06:46:39.561Z,22.06
2019-01-15T06:47:39.563Z,22.04
2019-01-15T06:48:39.544Z,21.95
2019-01-15T06:49:39.528Z,22.09
2019-01-15T06:50:39.517Z,22.01
2019-01-15T06:51:39.505Z,22.04
2019-01-15T06:52:39.495Z,22.06
2019-01-15T06:53:39.492Z,21.97
2019-01-15T06:54:39.471Z,21.90
2019-01-15T06:55:39.460Z,21.97
2019-01-15T06:56:39.450Z,22.01
2019-01-15T06:57:39.442Z,21.88
2019-01-15T06:58:39.436Z,21.82
2019-01-15T06:59:39.419Z,21.97
2019-01-15T07:00:39.404Z,21.94
2019-01-15T07:01:39.393Z,21.94
2019-01-15T07:02:39.382Z,21.82
2019-01-15T07:03:39.379Z,21.91
2019-01-15T07:04:43.845Z,21.94
2019-01-15T07:05:39.349Z,22.04
2019-01-15T07:06:39.337Z,21.99
2019-01-15T07:07:39.328Z,21.99
2019-01-15T07:08:39.349Z,22.06
2019-01-15T07:09:39.303Z,22.07
2019-01-15T07:10:39.292Z,22.13
2019-01-15T07:11:39.281Z,22.22
2019-01-15T07:12:39.276Z,22.20
2019-01-15T07:13:39.266Z,22.23
2019-01-15T07:14:39.248Z,22.28
2019-01-15T07:15:39.236Z,22.41
2019-01-15T07:16:39.278Z,22.37
2019-01-15T07:17:39.213Z,22.44
2019-01-15T07:18:39.214Z,22.38
2019-01-15T07:19:39.190Z,22.34
2019-01-15T07:20:39.179Z,22.25
2019-01-15T07:21:39.169Z,22.25
2019-01-15T07:22:39.159Z,22.28
2019-01-15T07:23:39.145Z,22.31
2019-01-15T07:24:39.143Z,22.27
2019-01-15T07:25:39.125Z,22.10
2019-01-15T07:26:39.111Z,22.20
2019-01-15T07:27:39.099Z,22.34
2019-01-15T07:28:39.088Z,22.32
2019-01-15T07:29:39.086Z,22.39
2019-01-15T07:30:39.068Z,22.39
2019-01-15T07:31:39.055Z,22.43
2019-01-15T07:32:39.050Z,22.46
2019-01-15T07:33:39.032Z,22.57
2019-01-15T07:34:39.036Z,22.57
2019-01-15T07:35:39.009Z,22.56
2019-01-15T07:36:39.002Z,22.62
2019-01-15T07:37:38.988Z,22.53
2019-01-15T07:38:38.977Z,22.59
2019-01-15T07:39:38.966Z,22.56
2019-01-15T07:40:38.965Z,22.54
2019-01-15T07:41:38.941Z,22.53
2019-01-15T07:42:38.931Z,22.47
2019-01-15T07:43:38.923Z,22.56
2019-01-15T07:44:38.909Z,22.53
2019-01-15T07:45:38.914Z,22.49
2019-01-15T07:46:38.885Z,22.39
2019-01-15T07:47:38.873Z,22.44
2019-01-15T07:48:38.864Z,22.34
2019-01-15T07:49:38.852Z,22.37
2019-01-15T07:50:38.851Z,22.34
2019-01-15T07:51:38.832Z,22.37
2019-01-15T07:52:38.822Z,22.37
2019-01-15T07:53:38.809Z,22.38
2019-01-15T07:54:38.794Z,22.29
2019-01-15T07:55:38.799Z,22.39
2019-01-15T07:56:38.823Z,22.29
2019-01-15T07:57:38.763Z,22.22
2019-01-15T07:58:38.749Z,22.31
2019-01-15T07:59:38.738Z,22.37
2019-01-15T08:00:38.732Z,22.32
2019-01-15T08:01:38.727Z,22.31
2019-01-15T08:02:38.705Z,22.17
2019-01-15T08:03:38.694Z,22.12
2019-01-15T08:04:38.687Z,22.17
2019-01-15T08:05:38.673Z,22.06
2019-01-15T08:06:38.669Z,22.14
2019-01-15T08:07:38.651Z,22.13
2019-01-15T08:08:38.638Z,22.17
2019-01-15T08:09:38.625Z,22.13
2019-01-15T08:10:38.615Z,22.17
2019-01-15T08:11:38.614Z,22.07
2019-01-15T08:12:38.593Z,22.10
2019-01-15T08:13:38.585Z,22.12
2019-01-15T08:14:38.572Z,22.10
2019-01-15T08:15:38.558Z,22.01
2019-01-15T08:16:38.564Z,22.12
2019-01-15T08:17:38.540Z,22.02
2019-01-15T08:18:38.526Z,21.99
2019-01-15T08:19:38.513Z,21.92
2019-01-15T08:20:38.502Z,22.02
2019-01-15T08:21:38.492Z,22.02
2019-01-15T08:22:38.488Z,21.92
2019-01-15T08:23:38.471Z,21.95
2019-01-15T08:24:38.459Z,21.94
2019-01-15T08:25:38.450Z,21.97
2019-01-15T08:26:38.439Z,22.01
2019-01-15T08:27:38.519Z,21.85
2019-01-15T08:28:38.414Z,22.01
2019-01-15T08:29:38.401Z,21.95
2019-01-15T08:30:38.388Z,21.91
2019-01-15T08:31:38.379Z,21.88
2019-01-15T08:32:38.385Z,21.88
2019-01-15T08:33:38.355Z,21.88
2019-01-15T08:34:38.345Z,21.81
2019-01-15T08:35:38.336Z,21.85
2019-01-15T08:36:38.325Z,21.91
2019-01-15T08:37:38.323Z,21.92
2019-01-15T08:38:38.299Z,21.95
2019-01-15T08:39:38.289Z,21.98
2019-01-15T08:40:38.277Z,21.79
2019-01-15T08:41:38.266Z,21.88
2019-01-15T08:42:38.264Z,21.83
2019-01-15T08:43:38.242Z,21.94
2019-01-15T08:44:38.235Z,21.79
2019-01-15T08:45:38.225Z,21.79
2019-01-15T08:46:38.209Z,21.79
2019-01-15T08:47:38.211Z,21.83
2019-01-15T08:48:38.191Z,21.85
2019-01-15T08:49:38.179Z,21.83
2019-01-15T08:50:38.166Z,21.78
2019-01-15T08:51:38.155Z,21.72
2019-01-15T08:52:38.143Z,21.81
2019-01-15T08:53:38.141Z,21.90
2019-01-15T08:54:38.124Z,21.79
2019-01-15T08:55:38.109Z,21.67
2019-01-15T08:56:38.100Z,21.76
2019-01-15T08:57:38.085Z,21.71
2019-01-15T08:58:38.088Z,21.81
2019-01-15T08:59:38.064Z,21.78
2019-01-15T09:00:38.057Z,21.72
2019-01-15T09:01:38.041Z,21.71
2019-01-15T09:02:38.030Z,21.74
2019-01-15T09:03:38.026Z,21.72
2019-01-15T09:04:38.377Z,21.67
2019-01-15T09:05:37.996Z,21.67
2019-01-15T09:06:37.989Z,21.72
2019-01-15T09:07:37.978Z,21.72
2019-01-15T09:08:37.972Z,21.71
2019-01-15T09:09:37.951Z,21.64
2019-01-15T09:10:37.941Z,21.66
2019-01-15T09:11:37.930Z,21.69
2019-01-15T09:12:37.919Z,21.61
2019-01-15T09:13:37.919Z,21.67
2019-01-15T09:14:37.896Z,21.61
2019-01-15T09:15:37.884Z,21.67
2019-01-15T09:16:37.874Z,21.57
2019-01-15T09:17:37.863Z,21.59
2019-01-15T09:18:37.851Z,21.60
2019-01-15T09:19:37.848Z,21.69
2019-01-15T09:20:37.834Z,21.59
2019-01-15T09:21:37.815Z,21.61
2019-01-15T09:22:37.804Z,21.64
2019-01-15T09:23:37.795Z,21.56
2019-01-15T09:24:37.792Z,21.56
2019-01-15T09:25:37.772Z,21.61
2019-01-15T09:26:37.758Z,21.54
2019-01-15T09:27:37.747Z,21.59
2019-01-15T09:28:37.737Z,21.59
2019-01-15T09:29:37.739Z,21.50
2019-01-15T09:30:37.714Z,21.51
2019-01-15T09:31:37.708Z,21.53
2019-01-15T09:32:37.694Z,21.50
2019-01-15T09:33:37.683Z,21.51
2019-01-15T09:34:37.669Z,21.53
2019-01-15T09:35:37.667Z,21.53
2019-01-15T09:36:37.650Z,21.51
2019-01-15T09:37:37.639Z,21.59
2019-01-15T09:38:37.624Z,21.50
2019-01-15T09:39:37.615Z,21.53
2019-01-15T09:40:37.615Z,21.51
2019-01-15T09:41:37.592Z,21.51
2019-01-15T09:42:37.584Z,21.48
2019-01-15T09:43:37.570Z,21.54
2019-01-15T09:44:37.557Z,21.54
2019-01-15T09:45:37.559Z,21.46
2019-01-15T09:46:37.535Z,21.54
2019-01-15T09:47:37.526Z,21.45
2019-01-15T09:48:37.513Z,21.48
2019-01-15T09:49:37.504Z,21.50
2019-01-15T09:50:37.504Z,21.41
2019-01-15T09:51:37.481Z,21.46
2019-01-15T09:52:37.470Z,21.45
2019-01-15T09:53:37.457Z,21.48
2019-01-15T09:54:37.446Z,21.51
2019-01-15T09:55:37.435Z,21.42
2019-01-15T09:56:37.436Z,21.46
2019-01-15T09:57:37.412Z,21.44
2019-01-15T09:58:37.401Z,21.44
2019-01-15T09:59:37.389Z,21.39
2019-01-15T10:00:37.378Z,21.46
2019-01-15T10:01:37.379Z,21.44
2019-01-15T10:02:37.359Z,21.46
2019-01-15T10:03:37.346Z,21.44
2019-01-15T10:04:37.336Z,21.48
2019-01-15T10:05:37.325Z,21.39
2019-01-15T10:06:37.322Z,21.44
2019-01-15T10:07:37.301Z,21.45
2019-01-15T10:08:37.289Z,21.45
2019-01-15T10:09:37.281Z,21.36
2019-01-15T10:10:37.270Z,21.38
2019-01-15T10:11:37.272Z,21.36
2019-01-15T10:12:37.245Z,21.41
2019-01-15T10:13:37.233Z,21.41
2019-01-15T10:14:41.239Z,21.42
2019-01-15T10:15:37.213Z,21.34
2019-01-15T10:16:37.200Z,21.41
2019-01-15T10:17:37.198Z,21.34
2019-01-15T10:18:37.178Z,21.45
2019-01-15T10:19:37.168Z,21.39
2019-01-15T10:20:37.155Z,21.45
2019-01-15T10:21:37.145Z,21.38
2019-01-15T10:22:37.146Z,21.34
2019-01-15T10:23:37.130Z,21.32
2019-01-15T10:24:37.109Z,21.38
2019-01-15T10:25:37.100Z,21.34
2019-01-15T10:26:37.088Z,21.30
2019-01-15T10:27:37.086Z,21.38
2019-01-15T10:28:37.067Z,21.38
2019-01-15T10:29:37.056Z,21.42
2019-01-15T10:30:37.042Z,21.34
2019-01-15T10:31:37.036Z,21.38
2019-01-15T10:32:37.031Z,21.41
2019-01-15T10:33:37.013Z,21.38
2019-01-15T10:34:36.998Z,21.35
2019-01-15T10:35:36.992Z,21.26
2019-01-15T10:36:36.977Z,21.27
2019-01-15T10:37:36.975Z,21.38
2019-01-15T10:38:36.953Z,21.41
2019-01-15T10:39:36.944Z,21.34
2019-01-15T10:40:36.932Z,21.38
2019-01-15T10:41:36.920Z,21.34
2019-01-15T10:42:36.917Z,21.27
2019-01-15T10:43:36.899Z,21.34
2019-01-15T10:44:36.886Z,21.36
2019-01-15T10:45:36.876Z,21.41
2019-01-15T10:46:36.864Z,21.36
2019-01-15T10:47:36.852Z,21.35
2019-01-15T10:48:36.851Z,21.30
2019-01-15T10:49:36.834Z,21.34
2019-01-15T10:50:36.823Z,21.36
2019-01-15T10:51:36.810Z,21.29
2019-01-15T10:52:36.797Z,21.41
2019-01-15T10:53:36.796Z,21.26
2019-01-15T10:54:36.777Z,21.34
2019-01-15T10:55:36.765Z,21.36
2019-01-15T10:56:36.751Z,21.29
2019-01-15T10:57:36.743Z,21.26
2019-01-15T10:58:36.743Z,21.27
2019-01-15T10:59:36.719Z,21.27
2019-01-15T11:00:36.708Z,21.41
2019-01-15T11:01:36.705Z,21.34
2019-01-15T11:02:36.685Z,21.36
2019-01-15T11:03:36.673Z,21.34
2019-01-15T11:04:36.673Z,21.27
2019-01-15T11:05:36.652Z,21.39
2019-01-15T11:06:36.643Z,21.29
2019-01-15T11:07:36.676Z,21.21
2019-01-15T11:08:36.624Z,21.36
2019-01-15T11:09:36.616Z,21.35
2019-01-15T11:10:36.604Z,21.26
2019-01-15T11:11:36.585Z,21.32
2019-01-15T11:12:36.574Z,21.23
2019-01-15T11:13:36.565Z,21.29
2019-01-15T11:14:36.559Z,21.24
2019-01-15T11:15:43.172Z,21.24
2019-01-15T11:16:37.529Z,21.30
2019-01-15T11:17:36.516Z,21.23
2019-01-15T11:18:36.513Z,21.34
2019-01-15T11:19:36.511Z,21.34
2019-01-15T11:20:36.484Z,21.27
2019-01-15T11:21:36.478Z,21.34
2019-01-15T11:22:36.462Z,21.27
2019-01-15T11:23:36.452Z,21.27
2019-01-15T11:24:36.445Z,21.24
2019-01-15T11:25:36.437Z,21.27
2019-01-15T11:26:36.417Z,21.23
2019-01-15T11:27:36.405Z,21.30
2019-01-15T11:28:36.397Z,21.23
2019-01-15T11:29:36.383Z,21.20
2019-01-15T11:30:36.379Z,21.26
2019-01-15T11:31:36.362Z,21.21
2019-01-15T11:32:36.352Z,21.21
2019-01-15T11:33:36.337Z,21.23
2019-01-15T11:34:36.328Z,21.20
2019-01-15T11:35:36.318Z,21.17
2019-01-15T11:36:36.314Z,21.21
2019-01-15T11:37:36.295Z,21.20
2019-01-15T11:38:36.285Z,21.21
2019-01-15T11:39:36.275Z,21.30
2019-01-15T11:40:36.260Z,21.23
2019-01-15T11:41:36.257Z,21.21
2019-01-15T11:42:36.239Z,21.19
2019-01-15T11:43:36.228Z,21.23
2019-01-15T11:44:36.218Z,21.19
2019-01-15T11:45:36.204Z,21.21
2019-01-15T11:46:36.202Z,21.17
2019-01-15T11:47:36.181Z,21.26
2019-01-15T11:48:36.171Z,21.23
2019-01-15T11:49:36.161Z,21.24
2019-01-15T11:50:36.151Z,21.20
2019-01-15T11:51:36.146Z,21.20
2019-01-15T11:52:36.127Z,21.21
2019-01-15T11:53:36.113Z,21.27
2019-01-15T11:54:36.103Z,21.16
2019-01-15T11:55:36.098Z,21.27
2019-01-15T11:56:36.094Z,21.21
2019-01-15T11:57:36.069Z,21.29
2019-01-15T11:58:36.061Z,21.21
2019-01-15T11:59:36.049Z,21.17
2019-01-15T12:00:36.034Z,21.29
2019-01-15T12:01:36.026Z,21.19
2019-01-15T12:02:36.021Z,21.23
2019-01-15T12:03:36.013Z,21.17
2019-01-15T12:04:35.990Z,21.21
2019-01-15T12:05:35.981Z,21.30
2019-01-15T12:06:35.968Z,21.16
2019-01-15T12:07:35.970Z,21.26
2019-01-15T12:08:35.947Z,21.17
2019-01-15T12:09:35.937Z,21.23
2019-01-15T12:10:35.925Z,21.23
2019-01-15T12:11:35.911Z,21.08
2019-01-15T12:12:35.903Z,21.24
2019-01-15T12:13:35.900Z,21.17
2019-01-15T12:14:35.880Z,21.13
2019-01-15T12:15:35.869Z,21.14
2019-01-15T12:16:35.858Z,21.19
2019-01-15T12:17:35.844Z,21.20
2019-01-15T12:18:35.842Z,21.17
2019-01-15T12:19:35.824Z,21.11
2019-01-15T12:20:35.813Z,21.17
2019-01-15T12:21:35.799Z,21.16
2019-01-15T12:22:35.793Z,21.17
2019-01-15T12:23:35.795Z,21.23
2019-01-15T12:24:35.766Z,21.06
2019-01-15T12:25:35.757Z,21.17
2019-01-15T12:26:35.744Z,21.13
2019-01-15T12:27:35.733Z,21.27
2019-01-15T12:28:35.722Z,21.17
2019-01-15T12:29:35.719Z,21.16
2019-01-15T12:30:35.700Z,21.14
2019-01-15T12:31:35.690Z,21.24
2019-01-15T12:32:35.676Z,21.21
2019-01-15T12:33:35.667Z,21.13
2019-01-15T12:34:35.664Z,21.13
2019-01-15T12:35:35.643Z,21.19
2019-01-15T12:36:35.631Z,21.19
2019-01-15T12:37:35.623Z,21.16
2019-01-15T12:38:35.613Z,21.14
2019-01-15T12:39:35.608Z,21.16
2019-01-15T12:40:35.587Z,21.16
2019-01-15T12:41:35.577Z,21.19
2019-01-15T12:42:35.565Z,21.16
2019-01-15T12:43:35.554Z,21.09
2019-01-15T12:44:35.555Z,21.11
2019-01-15T12:45:35.535Z,21.19
2019-01-15T12:46:35.520Z,21.13
2019-01-15T12:47:35.509Z,21.14
2019-01-15T12:48:35.499Z,21.20
2019-01-15T12:49:35.492Z,21.14
2019-01-15T12:50:35.487Z,21.11
2019-01-15T12:51:35.463Z,21.26
2019-01-15T12:52:35.453Z,21.19
2019-01-15T12:53:35.440Z,21.06
2019-01-15T12:54:35.432Z,21.19
2019-01-15T12:55:35.433Z,21.23
2019-01-15T12:56:35.409Z,21.17
2019-01-15T12:57:35.430Z,21.14
2019-01-15T12:58:35.386Z,21.14
2019-01-15T12:59:35.375Z,21.16
2019-01-15T13:00:35.365Z,21.14
2019-01-15T13:01:35.362Z,21.16
2019-01-15T13:02:35.341Z,21.19
2019-01-15T13:03:35.330Z,21.13
2019-01-15T13:04:35.318Z,21.06
2019-01-15T13:05:35.309Z,21.13
2019-01-15T13:06:35.310Z,21.13